sensor_id;sensor_type;location;lat;lon;timestamp;P1;durP1;ratioP1;P2;durP2;ratioP2
70543;SDS011;58097;48.364;-1.224;2024-01-25T08:24:58;20.55;;;7.65;;
70543;SDS011;58097;48.364;-1.224;2024-01-25T08:27:25;25.00;;;8.70;;
70543;SDS011;58097;48.364;-1.224;2024-01-25T08:29:50;24.65;;;8.25;;
70543;SDS011;58097;48.364;-1.224;2024-01-25T08:32:16;27.00;;;8.60;;
70543;SDS011;58097;48.364;-1.224;2024-01-25T08:34:41;21.52;;;8.23;;
70543;SDS011;58097;48.364;-1.224;2024-01-25T08:37:07;28.00;;;9.90;;
70543;SDS011;58097;48.364;-1.224;2024-01-25T08:39:32;27.45;;;9.82;;
70543;SDS011;58097;48.364;-1.224;2024-01-25T08:41:57;30.38;;;9.82;;
70543;SDS011;58097;48.364;-1.224;2024-01-25T08:44:26;24.75;;;9.55;;
70543;SDS011;58097;48.364;-1.224;2024-01-25T08:46:52;25.90;;;9.23;;
70543;SDS011;58097;48.364;-1.224;2024-01-25T08:49:17;26.92;;;9.13;;
70543;SDS011;58097;48.364;-1.224;2024-01-25T08:51:42;23.63;;;9.65;;
70543;SDS011;58097;48.364;-1.224;2024-01-25T08:54:08;28.85;;;9.43;;
70543;SDS011;58097;48.364;-1.224;2024-01-25T08:56:34;25.88;;;9.55;;
70543;SDS011;58097;48.364;-1.224;2024-01-25T08:58:59;18.52;;;8.40;;
70543;SDS011;58097;48.364;-1.224;2024-01-25T09:01:25;16.45;;;7.95;;
70543;SDS011;58097;48.364;-1.224;2024-01-25T09:03:50;25.02;;;8.35;;
70543;SDS011;58097;48.364;-1.224;2024-01-25T09:06:15;21.73;;;8.95;;
70543;SDS011;58097;48.364;-1.224;2024-01-25T09:08:42;21.38;;;7.85;;
70543;SDS011;58097;48.364;-1.224;2024-01-25T09:11:07;26.98;;;8.25;;
70543;SDS011;58097;48.364;-1.224;2024-01-25T09:13:33;19.15;;;9.48;;
70543;SDS011;58097;48.364;-1.224;2024-01-25T09:15:58;20.98;;;8.23;;
70543;SDS011;58097;48.364;-1.224;2024-01-25T09:18:23;14.25;;;7.88;;
70543;SDS011;58097;48.364;-1.224;2024-01-25T09:20:49;21.80;;;8.80;;
70543;SDS011;58097;48.364;-1.224;2024-01-25T09:23:14;20.50;;;8.25;;
70543;SDS011;58097;48.364;-1.224;2024-01-25T09:25:46;27.33;;;9.30;;
70543;SDS011;58097;48.364;-1.224;2024-01-25T09:28:11;17.88;;;8.50;;
70543;SDS011;58097;48.364;-1.224;2024-01-25T09:30:37;22.23;;;9.35;;
70543;SDS011;58097;48.364;-1.224;2024-01-25T09:33:04;23.30;;;9.23;;
70543;SDS011;58097;48.364;-1.224;2024-01-25T09:35:30;18.40;;;9.10;;
70543;SDS011;58097;48.364;-1.224;2024-01-25T09:37:55;22.77;;;9.02;;
70543;SDS011;58097;48.364;-1.224;2024-01-25T09:40:21;17.30;;;9.15;;
70543;SDS011;58097;48.364;-1.224;2024-01-25T09:42:47;20.38;;;8.55;;
70543;SDS011;58097;48.364;-1.224;2024-01-25T09:45:16;20.08;;;9.02;;
70543;SDS011;58097;48.364;-1.224;2024-01-25T09:47:43;21.70;;;8.70;;
70543;SDS011;58097;48.364;-1.224;2024-01-25T09:50:11;18.90;;;8.82;;
70543;SDS011;58097;48.364;-1.224;2024-01-25T09:52:41;18.15;;;8.95;;
70543;SDS011;58097;48.364;-1.224;2024-01-25T09:55:10;17.85;;;7.90;;
70543;SDS011;58097;48.364;-1.224;2024-01-25T09:57:40;22.65;;;8.95;;
70543;SDS011;58097;48.364;-1.224;2024-01-25T10:00:09;20.90;;;8.15;;
70543;SDS011;58097;48.364;-1.224;2024-01-25T10:02:37;16.13;;;8.10;;
70543;SDS011;58097;48.364;-1.224;2024-01-25T10:05:02;14.65;;;8.15;;
70543;SDS011;58097;48.364;-1.224;2024-01-25T10:07:41;20.27;;;8.50;;
70543;SDS011;58097;48.364;-1.224;2024-01-25T10:10:08;17.27;;;7.43;;
70543;SDS011;58097;48.364;-1.224;2024-01-25T10:12:34;14.48;;;7.00;;
70543;SDS011;58097;48.364;-1.224;2024-01-25T10:15:00;23.08;;;7.45;;
70543;SDS011;58097;48.364;-1.224;2024-01-25T10:17:27;14.05;;;6.90;;
70543;SDS011;58097;48.364;-1.224;2024-01-25T10:19:53;15.15;;;6.85;;
70543;SDS011;58097;48.364;-1.224;2024-01-25T10:22:18;16.95;;;6.05;;
70543;SDS011;58097;48.364;-1.224;2024-01-25T10:24:44;15.02;;;6.20;;
70543;SDS011;58097;48.364;-1.224;2024-01-25T10:27:10;17.98;;;6.20;;
70543;SDS011;58097;48.364;-1.224;2024-01-25T10:29:35;14.57;;;5.47;;
70543;SDS011;58097;48.364;-1.224;2024-01-25T10:32:04;14.20;;;5.93;;
70543;SDS011;58097;48.364;-1.224;2024-01-25T10:34:31;12.57;;;5.97;;
70543;SDS011;58097;48.364;-1.224;2024-01-25T10:36:57;11.20;;;5.47;;
70543;SDS011;58097;48.364;-1.224;2024-01-25T10:39:23;10.63;;;4.90;;
70543;SDS011;58097;48.364;-1.224;2024-01-25T10:41:50;12.40;;;4.95;;
70543;SDS011;58097;48.364;-1.224;2024-01-25T10:44:16;11.70;;;5.03;;
70543;SDS011;58097;48.364;-1.224;2024-01-25T10:46:45;8.02;;;4.45;;
70543;SDS011;58097;48.364;-1.224;2024-01-25T10:49:12;12.55;;;5.05;;
70543;SDS011;58097;48.364;-1.224;2024-01-25T10:51:37;12.77;;;4.53;;
70543;SDS011;58097;48.364;-1.224;2024-01-25T10:54:07;14.35;;;5.05;;
70543;SDS011;58097;48.364;-1.224;2024-01-25T10:56:34;9.95;;;4.72;;
70543;SDS011;58097;48.364;-1.224;2024-01-25T10:59:00;11.10;;;4.55;;
70543;SDS011;58097;48.364;-1.224;2024-01-25T11:01:26;10.88;;;4.90;;
70543;SDS011;58097;48.364;-1.224;2024-01-25T11:03:52;13.52;;;4.93;;
70543;SDS011;58097;48.364;-1.224;2024-01-25T11:06:20;13.65;;;4.47;;
70543;SDS011;58097;48.364;-1.224;2024-01-25T11:08:47;10.18;;;3.92;;
70543;SDS011;58097;48.364;-1.224;2024-01-25T11:11:12;8.95;;;4.57;;
70543;SDS011;58097;48.364;-1.224;2024-01-25T11:13:39;16.02;;;4.07;;
70543;SDS011;58097;48.364;-1.224;2024-01-25T11:16:16;12.52;;;4.75;;
70543;SDS011;58097;48.364;-1.224;2024-01-25T11:21:21;8.68;;;4.05;;
70543;SDS011;58097;48.364;-1.224;2024-01-25T11:23:58;14.43;;;4.97;;
70543;SDS011;58097;48.364;-1.224;2024-01-25T11:26:27;11.90;;;7.43;;
70543;SDS011;58097;48.364;-1.224;2024-01-25T11:28:52;23.60;;;11.02;;
70543;SDS011;58097;48.364;-1.224;2024-01-25T11:31:18;40.00;;;18.33;;
70543;SDS011;58097;48.364;-1.224;2024-01-25T11:33:43;12.77;;;5.90;;
70543;SDS011;58097;48.364;-1.224;2024-01-25T11:36:09;24.38;;;11.80;;
70543;SDS011;58097;48.364;-1.224;2024-01-25T11:38:36;22.67;;;10.80;;
70543;SDS011;58097;48.364;-1.224;2024-01-25T11:41:01;20.38;;;10.55;;
70543;SDS011;58097;48.364;-1.224;2024-01-25T11:43:27;21.23;;;11.45;;
70543;SDS011;58097;48.364;-1.224;2024-01-25T11:45:52;16.55;;;6.82;;
70543;SDS011;58097;48.364;-1.224;2024-01-25T11:48:18;11.63;;;6.57;;
70543;SDS011;58097;48.364;-1.224;2024-01-25T11:50:43;13.88;;;5.60;;
70543;SDS011;58097;48.364;-1.224;2024-01-25T11:53:09;9.38;;;5.30;;
70543;SDS011;58097;48.364;-1.224;2024-01-25T11:55:35;15.85;;;6.50;;
70543;SDS011;58097;48.364;-1.224;2024-01-25T11:58:00;11.90;;;5.75;;
70543;SDS011;58097;48.364;-1.224;2024-01-25T12:00:26;11.20;;;5.30;;
70543;SDS011;58097;48.364;-1.224;2024-01-25T12:02:52;10.75;;;4.88;;
70543;SDS011;58097;48.364;-1.224;2024-01-25T12:05:19;16.88;;;5.68;;
70543;SDS011;58097;48.364;-1.224;2024-01-25T12:07:44;21.40;;;5.90;;
70543;SDS011;58097;48.364;-1.224;2024-01-25T12:10:15;18.10;;;6.05;;
70543;SDS011;58097;48.364;-1.224;2024-01-25T12:12:44;13.40;;;4.68;;
70543;SDS011;58097;48.364;-1.224;2024-01-25T12:15:09;12.20;;;4.57;;
70543;SDS011;58097;48.364;-1.224;2024-01-25T12:17:35;13.02;;;5.10;;
70543;SDS011;58097;48.364;-1.224;2024-01-25T12:20:05;14.55;;;5.05;;
70543;SDS011;58097;48.364;-1.224;2024-01-25T12:22:36;18.20;;;5.38;;
70543;SDS011;58097;48.364;-1.224;2024-01-25T12:25:02;17.60;;;5.18;;
70543;SDS011;58097;48.364;-1.224;2024-01-25T12:27:28;13.50;;;4.65;;
70543;SDS011;58097;48.364;-1.224;2024-01-25T12:29:55;11.85;;;4.65;;
70543;SDS011;58097;48.364;-1.224;2024-01-25T12:32:21;9.45;;;4.85;;
70543;SDS011;58097;48.364;-1.224;2024-01-25T12:34:56;9.30;;;4.90;;
70543;SDS011;58097;48.364;-1.224;2024-01-25T12:37:23;15.65;;;6.03;;
70543;SDS011;58097;48.364;-1.224;2024-01-25T12:39:51;12.90;;;5.07;;
70543;SDS011;58097;48.364;-1.224;2024-01-25T12:42:17;13.05;;;5.00;;
70543;SDS011;58097;48.364;-1.224;2024-01-25T12:44:43;12.18;;;5.22;;
70543;SDS011;58097;48.364;-1.224;2024-01-25T12:47:10;10.65;;;5.22;;
70543;SDS011;58097;48.364;-1.224;2024-01-25T12:49:37;15.43;;;5.35;;
70543;SDS011;58097;48.364;-1.224;2024-01-25T12:52:04;14.48;;;5.60;;
70543;SDS011;58097;48.364;-1.224;2024-01-25T12:54:30;10.65;;;5.18;;
70543;SDS011;58097;48.364;-1.224;2024-01-25T12:56:55;13.75;;;5.50;;
70543;SDS011;58097;48.364;-1.224;2024-01-25T12:59:20;13.00;;;5.47;;
70543;SDS011;58097;48.364;-1.224;2024-01-25T13:01:46;14.88;;;5.38;;
70543;SDS011;58097;48.364;-1.224;2024-01-25T13:04:11;10.02;;;5.40;;
70543;SDS011;58097;48.364;-1.224;2024-01-25T13:06:37;12.25;;;5.18;;
70543;SDS011;58097;48.364;-1.224;2024-01-25T13:09:02;15.32;;;6.00;;
70543;SDS011;58097;48.364;-1.224;2024-01-25T13:11:28;12.73;;;5.53;;
70543;SDS011;58097;48.364;-1.224;2024-01-25T13:13:54;13.77;;;5.68;;
70543;SDS011;58097;48.364;-1.224;2024-01-25T13:16:20;19.38;;;6.15;;
70543;SDS011;58097;48.364;-1.224;2024-01-25T13:18:45;19.15;;;6.43;;
70543;SDS011;58097;48.364;-1.224;2024-01-25T13:21:10;14.65;;;5.75;;
70543;SDS011;58097;48.364;-1.224;2024-01-25T13:23:36;16.80;;;6.47;;
70543;SDS011;58097;48.364;-1.224;2024-01-25T13:26:01;18.05;;;7.00;;
70543;SDS011;58097;48.364;-1.224;2024-01-25T13:28:26;19.30;;;6.78;;
70543;SDS011;58097;48.364;-1.224;2024-01-25T13:30:52;17.33;;;6.30;;
70543;SDS011;58097;48.364;-1.224;2024-01-25T13:33:19;14.10;;;6.28;;
70543;SDS011;58097;48.364;-1.224;2024-01-25T13:35:44;10.77;;;6.45;;
70543;SDS011;58097;48.364;-1.224;2024-01-25T13:38:09;17.27;;;6.63;;
70543;SDS011;58097;48.364;-1.224;2024-01-25T13:40:39;15.52;;;6.13;;
70543;SDS011;58097;48.364;-1.224;2024-01-25T13:43:04;15.77;;;6.60;;
70543;SDS011;58097;48.364;-1.224;2024-01-25T13:45:30;15.77;;;6.38;;
70543;SDS011;58097;48.364;-1.224;2024-01-25T13:47:55;20.90;;;6.35;;
70543;SDS011;58097;48.364;-1.224;2024-01-25T13:50:20;18.38;;;6.07;;
70543;SDS011;58097;48.364;-1.224;2024-01-25T13:52:46;18.52;;;6.68;;
70543;SDS011;58097;48.364;-1.224;2024-01-25T13:55:11;16.80;;;6.43;;
70543;SDS011;58097;48.364;-1.224;2024-01-25T13:57:36;19.42;;;6.13;;
70543;SDS011;58097;48.364;-1.224;2024-01-25T14:00:02;13.57;;;6.00;;
70543;SDS011;58097;48.364;-1.224;2024-01-25T14:02:29;20.17;;;6.70;;
70543;SDS011;58097;48.364;-1.224;2024-01-25T14:04:54;13.43;;;6.32;;
70543;SDS011;58097;48.364;-1.224;2024-01-25T14:07:20;16.98;;;6.50;;
70543;SDS011;58097;48.364;-1.224;2024-01-25T14:09:46;19.38;;;7.07;;
70543;SDS011;58097;48.364;-1.224;2024-01-25T14:12:11;18.73;;;6.75;;
70543;SDS011;58097;48.364;-1.224;2024-01-25T14:14:37;18.90;;;7.30;;
70543;SDS011;58097;48.364;-1.224;2024-01-25T14:17:02;18.48;;;6.50;;
70543;SDS011;58097;48.364;-1.224;2024-01-25T14:19:28;14.68;;;5.72;;
70543;SDS011;58097;48.364;-1.224;2024-01-25T14:21:53;13.48;;;5.35;;
70543;SDS011;58097;48.364;-1.224;2024-01-25T14:24:19;17.30;;;5.78;;
70543;SDS011;58097;48.364;-1.224;2024-01-25T14:26:44;19.25;;;6.53;;
70543;SDS011;58097;48.364;-1.224;2024-01-25T14:29:11;15.95;;;6.38;;
70543;SDS011;58097;48.364;-1.224;2024-01-25T14:31:37;14.85;;;6.35;;
70543;SDS011;58097;48.364;-1.224;2024-01-25T14:34:02;20.05;;;6.65;;
70543;SDS011;58097;48.364;-1.224;2024-01-25T14:36:28;21.67;;;7.10;;
70543;SDS011;58097;48.364;-1.224;2024-01-25T14:38:53;19.58;;;6.45;;
70543;SDS011;58097;48.364;-1.224;2024-01-25T14:41:18;20.35;;;6.65;;
70543;SDS011;58097;48.364;-1.224;2024-01-25T14:43:44;24.77;;;7.47;;
70543;SDS011;58097;48.364;-1.224;2024-01-25T14:46:09;18.38;;;6.68;;
70543;SDS011;58097;48.364;-1.224;2024-01-25T14:48:35;15.75;;;6.57;;
70543;SDS011;58097;48.364;-1.224;2024-01-25T14:51:00;19.98;;;6.85;;
70543;SDS011;58097;48.364;-1.224;2024-01-25T14:53:26;18.33;;;6.65;;
70543;SDS011;58097;48.364;-1.224;2024-01-25T14:55:51;26.10;;;6.72;;
70543;SDS011;58097;48.364;-1.224;2024-01-25T14:58:17;19.95;;;6.70;;
70543;SDS011;58097;48.364;-1.224;2024-01-25T15:00:47;16.33;;;6.80;;
70543;SDS011;58097;48.364;-1.224;2024-01-25T15:03:13;18.90;;;7.13;;
70543;SDS011;58097;48.364;-1.224;2024-01-25T15:05:39;20.02;;;7.40;;
70543;SDS011;58097;48.364;-1.224;2024-01-25T15:08:04;21.95;;;7.57;;
70543;SDS011;58097;48.364;-1.224;2024-01-25T15:10:30;20.05;;;7.93;;
70543;SDS011;58097;48.364;-1.224;2024-01-25T15:12:56;19.42;;;7.45;;
70543;SDS011;58097;48.364;-1.224;2024-01-25T15:15:24;28.75;;;7.32;;
70543;SDS011;58097;48.364;-1.224;2024-01-25T15:17:53;19.67;;;6.90;;
70543;SDS011;58097;48.364;-1.224;2024-01-25T15:20:19;16.70;;;6.60;;
70543;SDS011;58097;48.364;-1.224;2024-01-25T15:22:45;15.13;;;6.80;;
70543;SDS011;58097;48.364;-1.224;2024-01-25T15:25:11;22.45;;;7.03;;
70543;SDS011;58097;48.364;-1.224;2024-01-25T15:27:36;21.17;;;7.05;;
70543;SDS011;58097;48.364;-1.224;2024-01-25T15:30:02;19.85;;;7.32;;
70543;SDS011;58097;48.364;-1.224;2024-01-25T15:32:27;20.88;;;7.20;;
70543;SDS011;58097;48.364;-1.224;2024-01-25T15:34:53;20.67;;;7.32;;
70543;SDS011;58097;48.364;-1.224;2024-01-25T15:37:18;17.75;;;7.75;;
70543;SDS011;58097;48.364;-1.224;2024-01-25T15:39:43;20.38;;;7.80;;
70543;SDS011;58097;48.364;-1.224;2024-01-25T15:42:09;21.15;;;7.13;;
70543;SDS011;58097;48.364;-1.224;2024-01-25T15:44:35;19.65;;;6.78;;
70543;SDS011;58097;48.364;-1.224;2024-01-25T15:47:01;15.98;;;6.57;;
70543;SDS011;58097;48.364;-1.224;2024-01-25T15:49:26;21.60;;;7.72;;
70543;SDS011;58097;48.364;-1.224;2024-01-25T15:51:52;16.98;;;8.02;;
70543;SDS011;58097;48.364;-1.224;2024-01-25T15:54:17;17.10;;;6.78;;
70543;SDS011;58097;48.364;-1.224;2024-01-25T15:56:43;16.05;;;6.30;;
70543;SDS011;58097;48.364;-1.224;2024-01-25T15:59:08;17.00;;;6.68;;
70543;SDS011;58097;48.364;-1.224;2024-01-25T16:01:35;22.45;;;6.55;;
70543;SDS011;58097;48.364;-1.224;2024-01-25T16:04:00;21.45;;;6.00;;
70543;SDS011;58097;48.364;-1.224;2024-01-25T16:06:26;20.48;;;6.57;;
70543;SDS011;58097;48.364;-1.224;2024-01-25T16:08:51;17.38;;;6.28;;
70543;SDS011;58097;48.364;-1.224;2024-01-25T16:11:17;25.45;;;6.38;;
70543;SDS011;58097;48.364;-1.224;2024-01-25T16:13:42;20.85;;;7.25;;
70543;SDS011;58097;48.364;-1.224;2024-01-25T16:16:07;14.80;;;5.72;;
70543;SDS011;58097;48.364;-1.224;2024-01-25T16:18:33;17.63;;;6.55;;
70543;SDS011;58097;48.364;-1.224;2024-01-25T16:20:58;16.92;;;7.03;;
70543;SDS011;58097;48.364;-1.224;2024-01-25T16:23:24;21.02;;;6.80;;
70543;SDS011;58097;48.364;-1.224;2024-01-25T16:25:49;21.98;;;6.90;;
70543;SDS011;58097;48.364;-1.224;2024-01-25T16:28:14;19.45;;;6.78;;
70543;SDS011;58097;48.364;-1.224;2024-01-25T16:30:40;18.80;;;7.30;;
70543;SDS011;58097;48.364;-1.224;2024-01-25T16:33:05;19.58;;;6.60;;
70543;SDS011;58097;48.364;-1.224;2024-01-25T16:35:31;20.63;;;6.80;;
70543;SDS011;58097;48.364;-1.224;2024-01-25T16:37:56;18.73;;;7.15;;
70543;SDS011;58097;48.364;-1.224;2024-01-25T16:40:21;24.83;;;7.55;;
70543;SDS011;58097;48.364;-1.224;2024-01-25T16:42:47;16.90;;;7.53;;
70543;SDS011;58097;48.364;-1.224;2024-01-25T16:45:12;20.67;;;8.23;;
70543;SDS011;58097;48.364;-1.224;2024-01-25T16:47:37;19.73;;;6.88;;
70543;SDS011;58097;48.364;-1.224;2024-01-25T16:50:03;20.02;;;7.15;;
70543;SDS011;58097;48.364;-1.224;2024-01-25T16:52:29;17.60;;;7.60;;
70543;SDS011;58097;48.364;-1.224;2024-01-25T16:54:54;22.77;;;7.82;;
70543;SDS011;58097;48.364;-1.224;2024-01-25T16:57:20;21.77;;;8.27;;
70543;SDS011;58097;48.364;-1.224;2024-01-25T16:59:45;22.73;;;8.23;;
70543;SDS011;58097;48.364;-1.224;2024-01-25T17:02:10;19.65;;;8.45;;
70543;SDS011;58097;48.364;-1.224;2024-01-25T17:04:36;22.63;;;7.32;;
70543;SDS011;58097;48.364;-1.224;2024-01-25T17:07:01;21.65;;;7.90;;
70543;SDS011;58097;48.364;-1.224;2024-01-25T17:09:26;23.25;;;9.43;;
70543;SDS011;58097;48.364;-1.224;2024-01-25T17:11:52;25.77;;;8.75;;
70543;SDS011;58097;48.364;-1.224;2024-01-25T17:14:17;23.70;;;8.30;;
70543;SDS011;58097;48.364;-1.224;2024-01-25T17:16:42;21.35;;;8.15;;
70543;SDS011;58097;48.364;-1.224;2024-01-25T17:19:08;21.50;;;8.50;;
70543;SDS011;58097;48.364;-1.224;2024-01-25T17:21:34;22.73;;;8.32;;
70543;SDS011;58097;48.364;-1.224;2024-01-25T17:23:59;27.33;;;7.80;;
70543;SDS011;58097;48.364;-1.224;2024-01-25T17:26:26;30.55;;;8.45;;
70543;SDS011;58097;48.364;-1.224;2024-01-25T17:28:51;24.63;;;8.05;;
70543;SDS011;58097;48.364;-1.224;2024-01-25T17:31:18;18.65;;;8.85;;
70543;SDS011;58097;48.364;-1.224;2024-01-25T17:33:44;27.33;;;9.45;;
70543;SDS011;58097;48.364;-1.224;2024-01-25T17:36:12;29.33;;;9.02;;
70543;SDS011;58097;48.364;-1.224;2024-01-25T17:38:38;26.73;;;10.43;;
70543;SDS011;58097;48.364;-1.224;2024-01-25T17:41:05;30.13;;;14.02;;
70543;SDS011;58097;48.364;-1.224;2024-01-25T17:43:30;37.28;;;13.93;;
70543;SDS011;58097;48.364;-1.224;2024-01-25T17:45:56;24.35;;;12.45;;
70543;SDS011;58097;48.364;-1.224;2024-01-25T17:48:21;25.20;;;13.38;;
70543;SDS011;58097;48.364;-1.224;2024-01-25T17:50:47;40.60;;;27.10;;
70543;SDS011;58097;48.364;-1.224;2024-01-25T17:53:12;35.67;;;19.48;;
70543;SDS011;58097;48.364;-1.224;2024-01-25T17:55:37;26.20;;;13.05;;
70543;SDS011;58097;48.364;-1.224;2024-01-25T17:58:03;27.65;;;13.68;;
70543;SDS011;58097;48.364;-1.224;2024-01-25T18:00:28;22.58;;;10.05;;
70543;SDS011;58097;48.364;-1.224;2024-01-25T18:02:54;25.35;;;9.45;;
70543;SDS011;58097;48.364;-1.224;2024-01-25T18:05:19;18.15;;;8.55;;
70543;SDS011;58097;48.364;-1.224;2024-01-25T18:07:45;26.38;;;9.30;;
70543;SDS011;58097;48.364;-1.224;2024-01-25T18:10:10;25.40;;;9.18;;
70543;SDS011;58097;48.364;-1.224;2024-01-25T18:12:38;20.60;;;7.40;;
70543;SDS011;58097;48.364;-1.224;2024-01-25T18:15:04;15.18;;;7.22;;
70543;SDS011;58097;48.364;-1.224;2024-01-25T18:17:31;19.65;;;6.45;;
70543;SDS011;58097;48.364;-1.224;2024-01-25T18:19:56;14.98;;;6.32;;
70543;SDS011;58097;48.364;-1.224;2024-01-25T18:22:22;20.48;;;7.18;;
70543;SDS011;58097;48.364;-1.224;2024-01-25T18:24:47;19.15;;;6.13;;
70543;SDS011;58097;48.364;-1.224;2024-01-25T18:27:13;19.02;;;8.00;;
70543;SDS011;58097;48.364;-1.224;2024-01-25T18:29:38;37.17;;;15.70;;
70543;SDS011;58097;48.364;-1.224;2024-01-25T18:32:05;36.00;;;15.82;;
70543;SDS011;58097;48.364;-1.224;2024-01-25T18:34:32;30.70;;;12.43;;
70543;SDS011;58097;48.364;-1.224;2024-01-25T18:36:57;15.02;;;7.57;;
70543;SDS011;58097;48.364;-1.224;2024-01-25T18:39:22;17.95;;;7.65;;
70543;SDS011;58097;48.364;-1.224;2024-01-25T18:41:48;15.95;;;6.65;;
70543;SDS011;58097;48.364;-1.224;2024-01-25T18:44:14;12.40;;;6.80;;
70543;SDS011;58097;48.364;-1.224;2024-01-25T18:46:39;20.08;;;6.90;;
70543;SDS011;58097;48.364;-1.224;2024-01-25T18:49:05;14.73;;;6.68;;
70543;SDS011;58097;48.364;-1.224;2024-01-25T18:51:30;17.02;;;6.80;;
70543;SDS011;58097;48.364;-1.224;2024-01-25T18:53:55;20.48;;;7.80;;
70543;SDS011;58097;48.364;-1.224;2024-01-25T18:56:21;19.80;;;8.65;;
70543;SDS011;58097;48.364;-1.224;2024-01-25T18:58:46;21.15;;;8.70;;
70543;SDS011;58097;48.364;-1.224;2024-01-25T19:01:13;22.17;;;8.70;;
70543;SDS011;58097;48.364;-1.224;2024-01-25T19:03:38;18.45;;;7.82;;
70543;SDS011;58097;48.364;-1.224;2024-01-25T19:06:04;18.23;;;9.40;;
70543;SDS011;58097;48.364;-1.224;2024-01-25T19:08:31;20.10;;;9.00;;
70543;SDS011;58097;48.364;-1.224;2024-01-25T19:10:57;19.30;;;8.50;;
70543;SDS011;58097;48.364;-1.224;2024-01-25T19:13:23;16.15;;;7.28;;
70543;SDS011;58097;48.364;-1.224;2024-01-25T19:15:49;19.55;;;7.97;;
70543;SDS011;58097;48.364;-1.224;2024-01-25T19:18:14;17.23;;;7.97;;
70543;SDS011;58097;48.364;-1.224;2024-01-25T19:20:40;15.85;;;8.45;;
70543;SDS011;58097;48.364;-1.224;2024-01-25T19:23:06;16.55;;;7.88;;
70543;SDS011;58097;48.364;-1.224;2024-01-25T19:25:32;22.63;;;9.75;;
70543;SDS011;58097;48.364;-1.224;2024-01-25T19:27:57;15.98;;;8.32;;
70543;SDS011;58097;48.364;-1.224;2024-01-25T19:30:22;19.25;;;9.48;;
70543;SDS011;58097;48.364;-1.224;2024-01-25T19:32:48;27.20;;;12.38;;
70543;SDS011;58097;48.364;-1.224;2024-01-25T19:35:13;20.98;;;8.57;;
70543;SDS011;58097;48.364;-1.224;2024-01-25T19:37:39;16.77;;;8.40;;
70543;SDS011;58097;48.364;-1.224;2024-01-25T19:40:05;23.50;;;10.63;;
70543;SDS011;58097;48.364;-1.224;2024-01-25T19:42:31;19.80;;;10.43;;
70543;SDS011;58097;48.364;-1.224;2024-01-25T19:44:56;21.70;;;9.10;;
70543;SDS011;58097;48.364;-1.224;2024-01-25T19:47:22;26.52;;;11.02;;
70543;SDS011;58097;48.364;-1.224;2024-01-25T19:49:47;30.13;;;12.80;;
70543;SDS011;58097;48.364;-1.224;2024-01-25T19:52:13;25.02;;;11.40;;
70543;SDS011;58097;48.364;-1.224;2024-01-25T19:54:38;22.65;;;11.25;;
70543;SDS011;58097;48.364;-1.224;2024-01-25T19:57:04;27.83;;;13.70;;
70543;SDS011;58097;48.364;-1.224;2024-01-25T19:59:31;30.35;;;12.90;;
70543;SDS011;58097;48.364;-1.224;2024-01-25T20:01:56;30.05;;;13.57;;
70543;SDS011;58097;48.364;-1.224;2024-01-25T20:04:22;30.92;;;14.82;;
70543;SDS011;58097;48.364;-1.224;2024-01-25T20:06:48;27.05;;;12.15;;
70543;SDS011;58097;48.364;-1.224;2024-01-25T20:09:13;27.52;;;13.18;;
70543;SDS011;58097;48.364;-1.224;2024-01-25T20:11:39;23.60;;;11.27;;
70543;SDS011;58097;48.364;-1.224;2024-01-25T20:14:04;26.83;;;11.07;;
70543;SDS011;58097;48.364;-1.224;2024-01-25T20:16:29;32.28;;;13.07;;
70543;SDS011;58097;48.364;-1.224;2024-01-25T20:18:55;25.38;;;9.82;;
70543;SDS011;58097;48.364;-1.224;2024-01-25T20:21:20;26.35;;;12.90;;
70543;SDS011;58097;48.364;-1.224;2024-01-25T20:23:45;24.92;;;12.73;;
70543;SDS011;58097;48.364;-1.224;2024-01-25T20:26:11;25.13;;;10.73;;
70543;SDS011;58097;48.364;-1.224;2024-01-25T20:28:37;24.98;;;10.85;;
70543;SDS011;58097;48.364;-1.224;2024-01-25T20:31:03;23.90;;;11.85;;
70543;SDS011;58097;48.364;-1.224;2024-01-25T20:33:28;20.02;;;10.77;;
70543;SDS011;58097;48.364;-1.224;2024-01-25T20:35:54;25.50;;;11.68;;
70543;SDS011;58097;48.364;-1.224;2024-01-25T20:38:19;24.73;;;11.50;;
70543;SDS011;58097;48.364;-1.224;2024-01-25T20:40:45;26.08;;;11.85;;
70543;SDS011;58097;48.364;-1.224;2024-01-25T20:43:10;30.65;;;11.43;;
70543;SDS011;58097;48.364;-1.224;2024-01-25T20:45:36;25.75;;;11.38;;
70543;SDS011;58097;48.364;-1.224;2024-01-25T20:48:01;22.65;;;10.88;;
70543;SDS011;58097;48.364;-1.224;2024-01-25T20:50:27;26.38;;;12.48;;
70543;SDS011;58097;48.364;-1.224;2024-01-25T20:52:52;29.52;;;11.75;;
70543;SDS011;58097;48.364;-1.224;2024-01-25T20:55:17;27.25;;;11.25;;
70543;SDS011;58097;48.364;-1.224;2024-01-25T20:57:43;30.33;;;11.40;;
70543;SDS011;58097;48.364;-1.224;2024-01-25T21:00:08;29.27;;;11.30;;
70543;SDS011;58097;48.364;-1.224;2024-01-25T21:02:36;25.75;;;11.20;;
70543;SDS011;58097;48.364;-1.224;2024-01-25T21:05:02;23.80;;;11.38;;
70543;SDS011;58097;48.364;-1.224;2024-01-25T21:07:29;25.35;;;12.10;;
70543;SDS011;58097;48.364;-1.224;2024-01-25T21:09:55;26.85;;;11.52;;
70543;SDS011;58097;48.364;-1.224;2024-01-25T21:12:21;30.23;;;11.75;;
70543;SDS011;58097;48.364;-1.224;2024-01-25T21:14:46;28.20;;;12.43;;
70543;SDS011;58097;48.364;-1.224;2024-01-25T21:17:12;28.40;;;12.07;;
70543;SDS011;58097;48.364;-1.224;2024-01-25T21:19:37;29.60;;;12.05;;
70543;SDS011;58097;48.364;-1.224;2024-01-25T21:22:02;25.50;;;12.25;;
70543;SDS011;58097;48.364;-1.224;2024-01-25T21:24:28;30.38;;;12.07;;
70543;SDS011;58097;48.364;-1.224;2024-01-25T21:26:53;33.78;;;11.82;;
70543;SDS011;58097;48.364;-1.224;2024-01-25T21:29:19;30.27;;;12.65;;
70543;SDS011;58097;48.364;-1.224;2024-01-25T21:31:45;36.83;;;12.43;;
70543;SDS011;58097;48.364;-1.224;2024-01-25T21:34:10;30.08;;;11.80;;
70543;SDS011;58097;48.364;-1.224;2024-01-25T21:36:36;22.35;;;11.48;;
70543;SDS011;58097;48.364;-1.224;2024-01-25T21:39:02;35.20;;;11.80;;
70543;SDS011;58097;48.364;-1.224;2024-01-25T21:41:28;35.30;;;11.35;;
70543;SDS011;58097;48.364;-1.224;2024-01-25T21:43:53;30.55;;;11.85;;
70543;SDS011;58097;48.364;-1.224;2024-01-25T21:46:18;39.97;;;11.98;;
70543;SDS011;58097;48.364;-1.224;2024-01-25T21:48:43;33.05;;;11.45;;
70543;SDS011;58097;48.364;-1.224;2024-01-25T21:51:09;29.02;;;12.25;;
70543;SDS011;58097;48.364;-1.224;2024-01-25T21:53:36;34.92;;;12.75;;
70543;SDS011;58097;48.364;-1.224;2024-01-25T21:56:01;35.30;;;12.32;;
70543;SDS011;58097;48.364;-1.224;2024-01-25T21:58:27;36.55;;;11.80;;
70543;SDS011;58097;48.364;-1.224;2024-01-25T22:00:52;37.28;;;12.95;;
70543;SDS011;58097;48.364;-1.224;2024-01-25T22:03:17;38.70;;;12.30;;
70543;SDS011;58097;48.364;-1.224;2024-01-25T22:05:43;39.28;;;13.40;;
70543;SDS011;58097;48.364;-1.224;2024-01-25T22:08:08;45.58;;;12.95;;
70543;SDS011;58097;48.364;-1.224;2024-01-25T22:10:34;32.55;;;11.30;;
70543;SDS011;58097;48.364;-1.224;2024-01-25T22:12:59;33.03;;;11.85;;
70543;SDS011;58097;48.364;-1.224;2024-01-25T22:15:24;31.77;;;10.95;;
70543;SDS011;58097;48.364;-1.224;2024-01-25T22:17:50;29.83;;;10.60;;
70543;SDS011;58097;48.364;-1.224;2024-01-25T22:20:15;36.45;;;10.85;;
70543;SDS011;58097;48.364;-1.224;2024-01-25T22:22:40;33.05;;;11.15;;
70543;SDS011;58097;48.364;-1.224;2024-01-25T22:25:06;38.13;;;12.05;;
70543;SDS011;58097;48.364;-1.224;2024-01-25T22:27:32;37.83;;;10.80;;
70543;SDS011;58097;48.364;-1.224;2024-01-25T22:29:57;33.20;;;10.93;;
70543;SDS011;58097;48.364;-1.224;2024-01-25T22:32:23;27.83;;;10.85;;
70543;SDS011;58097;48.364;-1.224;2024-01-25T22:34:48;28.27;;;9.77;;
70543;SDS011;58097;48.364;-1.224;2024-01-25T22:37:14;39.75;;;11.30;;